Time;durP1;ratioP1;P1;durP2;ratioP2;P2;SDS_P1;SDS_P2;PMS_P1;PMS_P2;Temp;Humidity;BMP_temperature;BMP_pressure;BME280_temperature;BME280_humidity;BME280_pressure;Samples;Min_cycle;Max_cycle;Signal;HPM_P1;HPM_P2
2024/04/26 00:02:14;;;;;;;7.63;2.33;;;;;;;;;;5420648;26;20060;-52
2024/04/26 00:04:41;;;;;;;8.45;2.50;;;;;;;;;;5419939;26;20104;-50
2024/04/26 00:07:06;;;;;;;8.57;2.55;;;;;;;;;;5420347;26;19996;-52
2024/04/26 00:09:32;;;;;;;8.30;2.60;;;;;;;;;;5420269;26;20458;-51
2024/04/26 00:11:57;;;;;;;8.15;2.40;;;;;;;;;;5420392;26;20364;-55
2024/04/26 00:14:23;;;;;;;8.23;2.65;;;;;;;;;;5420488;26;20002;-53
2024/04/26 00:16:48;;;;;;;7.38;2.30;;;;;;;;;;5419879;26;20003;-54
2024/04/26 00:19:14;;;;;;;10.25;2.95;;;;;;;;;;5419733;26;20313;-53
2024/04/26 00:21:45;;;;;;;7.72;3.05;;;;;;;;;;5420451;26;20000;-51
2024/04/26 00:24:15;;;;;;;6.40;2.20;;;;;;;;;;5420207;26;20018;-52
2024/04/26 00:26:40;;;;;;;10.15;2.60;;;;;;;;;;5423875;26;20003;-52
2024/04/26 00:29:05;;;;;;;6.75;2.40;;;;;;;;;;5433426;26;20285;-51
2024/04/26 00:31:30;;;;;;;6.35;2.25;;;;;;;;;;5420444;26;19995;-54
2024/04/26 00:33:56;;;;;;;8.82;2.67;;;;;;;;;;5420328;26;20064;-51
2024/04/26 00:36:21;;;;;;;7.80;2.50;;;;;;;;;;5420553;26;20034;-52
2024/04/26 00:38:46;;;;;;;8.55;2.67;;;;;;;;;;5420006;26;20015;-52
2024/04/26 00:41:12;;;;;;;10.02;2.47;;;;;;;;;;5419446;26;20078;-51
2024/04/26 00:43:37;;;;;;;6.72;2.30;;;;;;;;;;5419899;26;20372;-52
2024/04/26 00:46:03;;;;;;;7.18;2.42;;;;;;;;;;5418277;26;19999;-54
2024/04/26 00:48:29;;;;;;;8.85;2.95;;;;;;;;;;5419780;26;20424;-51
2024/04/26 00:50:54;;;;;;;9.52;3.00;;;;;;;;;;5420079;26;20005;-54
2024/04/26 00:53:19;;;;;;;9.05;2.50;;;;;;;;;;5416664;26;19996;-52
2024/04/26 00:55:44;;;;;;;8.45;2.58;;;;;;;;;;5419863;26;19991;-51
2024/04/26 00:58:11;;;;;;;8.10;2.58;;;;;;;;;;5418718;26;20077;-55
2024/04/26 01:00:41;;;;;;;7.75;2.40;;;;;;;;;;5419132;26;20038;-54
2024/04/26 01:03:07;;;;;;;10.43;2.08;;;;;;;;;;5419257;26;20420;-51
2024/04/26 01:05:32;;;;;;;8.70;2.47;;;;;;;;;;5419281;26;19999;-52
2024/04/26 01:07:57;;;;;;;8.43;2.40;;;;;;;;;;5419550;26;20080;-53
2024/04/26 01:10:22;;;;;;;8.45;2.72;;;;;;;;;;5419774;26;20269;-53
2024/04/26 01:12:48;;;;;;;7.93;2.20;;;;;;;;;;5419612;26;20003;-53
2024/04/26 01:15:13;;;;;;;8.57;2.58;;;;;;;;;;5419377;26;20069;-55
2024/04/26 01:17:38;;;;;;;12.43;2.35;;;;;;;;;;5419215;26;20467;-51
2024/04/26 01:20:04;;;;;;;8.73;2.38;;;;;;;;;;5419774;26;20003;-52
2024/04/26 01:22:32;;;;;;;7.45;2.33;;;;;;;;;;5419752;26;19999;-51
2024/04/26 01:24:57;;;;;;;5.78;2.20;;;;;;;;;;5419398;26;20351;-56
2024/04/26 01:27:22;;;;;;;9.70;2.60;;;;;;;;;;5418743;26;20028;-54
2024/04/26 01:29:47;;;;;;;8.85;2.30;;;;;;;;;;5419754;26;20122;-52
2024/04/26 01:32:13;;;;;;;7.03;2.33;;;;;;;;;;5419283;26;19991;-52
2024/04/26 01:34:38;;;;;;;7.20;2.90;;;;;;;;;;5419543;26;20010;-51
2024/04/26 01:37:04;;;;;;;7.15;2.42;;;;;;;;;;5419435;26;19996;-51
2024/04/26 01:39:29;;;;;;;11.90;2.45;;;;;;;;;;5418210;26;20316;-54
2024/04/26 01:41:55;;;;;;;10.10;2.45;;;;;;;;;;5419469;26;20011;-51
2024/04/26 01:44:20;;;;;;;9.02;2.70;;;;;;;;;;5419204;26;19996;-52
2024/04/26 01:46:45;;;;;;;8.05;2.45;;;;;;;;;;5419150;26;20010;-54
2024/04/26 01:49:10;;;;;;;9.60;2.58;;;;;;;;;;5418556;26;20010;-52
2024/04/26 01:51:35;;;;;;;10.00;2.58;;;;;;;;;;5418685;26;19995;-54
2024/04/26 01:54:01;;;;;;;6.85;1.95;;;;;;;;;;5419002;26;19996;-52
2024/04/26 01:56:26;;;;;;;8.77;2.65;;;;;;;;;;5418643;26;20014;-52
2024/04/26 01:58:51;;;;;;;9.85;2.78;;;;;;;;;;5418832;26;20051;-52
2024/04/26 02:01:18;;;;;;;9.23;2.38;;;;;;;;;;5417949;26;20074;-53
2024/04/26 02:03:43;;;;;;;6.70;2.63;;;;;;;;;;5418126;26;19999;-53
2024/04/26 02:06:10;;;;;;;6.35;2.50;;;;;;;;;;5416852;26;19999;-52
2024/04/26 02:08:35;;;;;;;7.85;2.40;;;;;;;;;;5419155;26;20003;-54
2024/04/26 02:11:00;;;;;;;10.13;2.63;;;;;;;;;;5418635;26;20057;-51
2024/04/26 02:13:25;;;;;;;6.78;2.17;;;;;;;;;;5417983;26;20037;-52
2024/04/26 02:15:50;;;;;;;8.00;2.55;;;;;;;;;;5418598;26;20057;-52
2024/04/26 02:18:16;;;;;;;10.20;2.47;;;;;;;;;;5418008;26;20000;-54
2024/04/26 02:20:41;;;;;;;6.40;2.20;;;;;;;;;;5418878;26;19997;-51
2024/04/26 02:23:06;;;;;;;9.70;2.83;;;;;;;;;;5418044;26;20003;-53
2024/04/26 02:25:31;;;;;;;6.63;2.17;;;;;;;;;;5418341;26;19992;-53
2024/04/26 02:27:56;;;;;;;7.47;2.50;;;;;;;;;;5424693;26;20014;-53
2024/04/26 02:30:22;;;;;;;7.68;2.30;;;;;;;;;;5417563;26;19995;-52
2024/04/26 02:32:47;;;;;;;7.53;2.58;;;;;;;;;;5417919;26;20002;-53
2024/04/26 02:35:12;;;;;;;8.15;2.85;;;;;;;;;;5418423;26;20010;-52
2024/04/26 02:37:38;;;;;;;9.75;2.28;;;;;;;;;;5418684;26;20393;-52
2024/04/26 02:40:03;;;;;;;8.88;2.70;;;;;;;;;;5417662;26;19992;-53
2024/04/26 02:42:28;;;;;;;9.07;2.70;;;;;;;;;;5430722;26;20005;-51
2024/04/26 02:44:53;;;;;;;8.02;2.60;;;;;;;;;;5430353;26;19995;-52
2024/04/26 02:47:19;;;;;;;9.13;2.55;;;;;;;;;;5415827;26;20049;-51
2024/04/26 02:49:44;;;;;;;8.35;2.88;;;;;;;;;;5417493;26;20003;-52
2024/04/26 02:52:09;;;;;;;7.70;2.60;;;;;;;;;;5417409;26;19992;-52
2024/04/26 02:54:34;;;;;;;7.50;2.30;;;;;;;;;;5417489;26;19995;-55
2024/04/26 02:57:00;;;;;;;7.97;2.58;;;;;;;;;;5417442;26;20010;-54
2024/04/26 02:59:25;;;;;;;7.38;2.92;;;;;;;;;;5451152;26;20458;-53
2024/04/26 03:01:50;;;;;;;7.40;2.55;;;;;;;;;;5427751;21;20282;-90
2024/04/26 03:04:16;;;;;;;9.45;3.05;;;;;;;;;;5325111;26;20016;-90
2024/04/26 03:06:43;;;;;;;8.18;2.50;;;;;;;;;;5362879;26;20004;-90
2024/04/26 03:09:08;;;;;;;9.57;2.95;;;;;;;;;;5352022;26;20004;-90
2024/04/26 03:11:34;;;;;;;7.65;2.67;;;;;;;;;;5383963;26;20047;-90
2024/04/26 03:13:59;;;;;;;7.70;2.80;;;;;;;;;;5382545;26;20321;-90
2024/04/26 03:16:25;;;;;;;8.15;2.90;;;;;;;;;;5352954;26;20008;-90
2024/04/26 03:18:50;;;;;;;11.60;2.95;;;;;;;;;;5386724;26;20101;-90
2024/04/26 03:21:16;;;;;;;9.02;2.67;;;;;;;;;;5355618;26;19992;-90
2024/04/26 03:23:41;;;;;;;7.90;2.67;;;;;;;;;;5355522;26;20033;-90
2024/04/26 03:26:11;;;;;;;7.60;2.90;;;;;;;;;;5338389;26;19997;-90
2024/04/26 03:28:37;;;;;;;9.18;3.15;;;;;;;;;;5320739;26;20283;-90
2024/04/26 03:31:02;;;;;;;8.23;2.80;;;;;;;;;;5352084;26;20012;-90
2024/04/26 03:33:27;;;;;;;8.27;2.78;;;;;;;;;;5324094;26;20406;-90
2024/04/26 03:35:52;;;;;;;9.52;2.67;;;;;;;;;;5352467;26;19997;-90
2024/04/26 03:38:18;;;;;;;9.80;3.15;;;;;;;;;;5346114;26;20011;-90
2024/04/26 03:40:43;;;;;;;9.10;2.83;;;;;;;;;;5356342;26;19996;-90
2024/04/26 03:43:14;;;;;;;6.95;2.50;;;;;;;;;;5387308;26;20471;-90
2024/04/26 03:45:41;;;;;;;10.55;3.00;;;;;;;;;;5356631;26;20047;-90
2024/04/26 03:48:06;;;;;;;9.13;2.75;;;;;;;;;;5354467;26;20087;-90
2024/04/26 03:50:31;;;;;;;11.02;2.88;;;;;;;;;;5355707;26;20417;-89
2024/04/26 03:52:57;;;;;;;8.07;2.70;;;;;;;;;;5356041;26;20305;-90
2024/04/26 03:55:23;;;;;;;6.95;2.63;;;;;;;;;;5355544;26;20004;-90
2024/04/26 03:57:50;;;;;;;11.68;3.40;;;;;;;;;;5357048;26;20417;-90
2024/04/26 04:00:16;;;;;;;8.13;2.80;;;;;;;;;;5332571;26;20004;-90
2024/04/26 04:02:42;;;;;;;8.82;2.72;;;;;;;;;;5412423;21;20585;-51
2024/04/26 04:05:09;;;;;;;10.10;3.10;;;;;;;;;;5419684;26;20000;-51
2024/04/26 04:07:34;;;;;;;8.98;2.70;;;;;;;;;;5421595;26;20069;-54
2024/04/26 04:10:00;;;;;;;9.05;2.30;;;;;;;;;;5421811;26;20011;-51
2024/04/26 04:12:25;;;;;;;8.77;2.80;;;;;;;;;;5420246;26;20061;-52
2024/04/26 04:14:50;;;;;;;9.50;2.47;;;;;;;;;;5386458;26;19988;-52
2024/04/26 04:17:16;;;;;;;8.27;2.97;;;;;;;;;;5429922;26;20287;-51
2024/04/26 04:19:42;;;;;;;11.45;2.95;;;;;;;;;;5422429;26;20341;-53
2024/04/26 04:22:07;;;;;;;8.25;2.60;;;;;;;;;;5421541;26;19995;-51
2024/04/26 04:24:32;;;;;;;8.23;2.45;;;;;;;;;;5396798;26;20000;-51
2024/04/26 04:26:57;;;;;;;6.07;2.35;;;;;;;;;;5386757;26;20034;-52
2024/04/26 04:29:23;;;;;;;9.48;2.63;;;;;;;;;;5403780;26;20002;-51
2024/04/26 04:31:48;;;;;;;7.55;2.85;;;;;;;;;;5435645;26;20010;-51
2024/04/26 04:34:13;;;;;;;11.27;2.95;;;;;;;;;;5421468;26;20292;-52
2024/04/26 04:36:38;;;;;;;8.05;2.80;;;;;;;;;;5421409;26;20293;-53
2024/04/26 04:39:04;;;;;;;7.78;2.80;;;;;;;;;;5394391;26;20423;-52
2024/04/26 04:41:29;;;;;;;9.57;2.88;;;;;;;;;;5385674;26;20420;-53
2024/04/26 04:43:54;;;;;;;10.52;3.10;;;;;;;;;;5385762;26;20301;-54
2024/04/26 04:46:19;;;;;;;8.85;3.10;;;;;;;;;;5397703;26;20003;-52
2024/04/26 04:48:44;;;;;;;7.63;2.65;;;;;;;;;;5407382;26;20011;-51
2024/04/26 04:51:10;;;;;;;9.75;2.90;;;;;;;;;;5386802;26;20348;-51
2024/04/26 04:53:35;;;;;;;7.88;3.00;;;;;;;;;;5386612;26;20417;-52
2024/04/26 04:56:00;;;;;;;7.22;2.67;;;;;;;;;;5421180;26;19995;-53
2024/04/26 04:58:25;;;;;;;6.20;2.72;;;;;;;;;;5420292;26;19991;-53
2024/04/26 05:00:52;;;;;;;10.27;2.85;;;;;;;;;;5418062;26;20003;-53
2024/04/26 05:03:17;;;;;;;10.88;3.20;;;;;;;;;;5439385;26;20015;-53
2024/04/26 05:05:43;;;;;;;8.75;3.35;;;;;;;;;;5420866;26;20296;-52
2024/04/26 05:08:09;;;;;;;11.18;3.10;;;;;;;;;;5421183;26;20362;-52
2024/04/26 05:10:34;;;;;;;10.52;2.97;;;;;;;;;;5421291;26;19999;-52
2024/04/26 05:12:59;;;;;;;11.00;3.30;;;;;;;;;;5404427;26;20273;-52
2024/04/26 05:15:24;;;;;;;10.23;2.95;;;;;;;;;;5391598;26;20414;-52
2024/04/26 05:17:50;;;;;;;12.13;3.20;;;;;;;;;;5422459;26;20003;-53
2024/04/26 05:20:15;;;;;;;6.85;2.90;;;;;;;;;;5420863;26;19987;-52
2024/04/26 05:22:40;;;;;;;11.00;3.10;;;;;;;;;;5416801;26;19995;-53
2024/04/26 05:25:05;;;;;;;11.52;3.67;;;;;;;;;;5420732;26;20073;-52
2024/04/26 05:27:31;;;;;;;12.30;2.92;;;;;;;;;;5421012;26;20039;-51
2024/04/26 05:29:56;;;;;;;8.73;3.22;;;;;;;;;;5420417;26;20007;-53
2024/04/26 05:32:21;;;;;;;9.20;3.33;;;;;;;;;;5408790;26;19996;-53
2024/04/26 05:34:46;;;;;;;11.63;3.08;;;;;;;;;;5385868;26;19992;-54
2024/04/26 05:37:12;;;;;;;11.25;3.60;;;;;;;;;;5384996;26;20043;-53
2024/04/26 05:39:38;;;;;;;11.93;3.63;;;;;;;;;;5384809;26;19997;-51
2024/04/26 05:42:03;;;;;;;10.93;3.55;;;;;;;;;;5386887;26;20305;-55
2024/04/26 05:44:28;;;;;;;11.85;3.55;;;;;;;;;;5394456;26;20062;-53
2024/04/26 05:46:54;;;;;;;10.45;3.40;;;;;;;;;;5419877;26;19991;-53
2024/04/26 05:49:19;;;;;;;11.75;3.45;;;;;;;;;;5418675;26;20006;-51
2024/04/26 05:51:44;;;;;;;10.68;3.47;;;;;;;;;;5420262;26;20462;-53
2024/04/26 05:54:10;;;;;;;11.43;3.38;;;;;;;;;;5397386;26;20007;-52
2024/04/26 05:56:35;;;;;;;12.77;3.53;;;;;;;;;;5395252;26;20000;-53
2024/04/26 05:59:00;;;;;;;8.60;3.70;;;;;;;;;;5397324;26;19992;-51
2024/04/26 06:01:25;;;;;;;7.90;3.30;;;;;;;;;;5427808;26;20101;-52
2024/04/26 06:03:50;;;;;;;14.30;3.90;;;;;;;;;;5455731;26;20001;-51
2024/04/26 06:06:18;;;;;;;11.15;3.55;;;;;;;;;;5453856;26;19991;-52
2024/04/26 06:08:43;;;;;;;10.40;3.47;;;;;;;;;;5417193;26;20308;-53
2024/04/26 06:11:08;;;;;;;13.70;4.03;;;;;;;;;;5423946;26;19991;-51
2024/04/26 06:13:33;;;;;;;11.07;4.32;;;;;;;;;;5455855;26;20300;-52
2024/04/26 06:15:59;;;;;;;12.45;4.00;;;;;;;;;;5455541;26;19997;-52
2024/04/26 06:18:24;;;;;;;11.13;3.83;;;;;;;;;;5428503;26;20004;-56
2024/04/26 06:20:49;;;;;;;15.02;3.80;;;;;;;;;;5384958;26;19994;-51
2024/04/26 06:23:14;;;;;;;11.30;3.80;;;;;;;;;;5384128;26;19996;-52
2024/04/26 06:25:40;;;;;;;11.80;4.10;;;;;;;;;;5397349;26;20408;-52
2024/04/26 06:28:05;;;;;;;14.25;3.67;;;;;;;;;;5417205;26;20011;-54
2024/04/26 06:30:30;;;;;;;9.43;3.47;;;;;;;;;;5418051;26;20079;-52
2024/04/26 06:32:55;;;;;;;11.23;4.38;;;;;;;;;;5418828;26;20000;-51
2024/04/26 06:35:21;;;;;;;11.20;3.70;;;;;;;;;;5419026;26;19988;-51
2024/04/26 06:37:46;;;;;;;11.85;3.60;;;;;;;;;;5417536;26;19995;-53
2024/04/26 06:40:11;;;;;;;13.70;3.53;;;;;;;;;;5394487;26;20015;-52
2024/04/26 06:42:36;;;;;;;13.13;3.90;;;;;;;;;;5419246;26;20037;-54
2024/04/26 06:45:02;;;;;;;9.85;3.40;;;;;;;;;;5419400;26;20010;-53
2024/04/26 06:47:27;;;;;;;10.25;3.50;;;;;;;;;;5419044;26;20431;-54
2024/04/26 06:49:52;;;;;;;10.98;3.90;;;;;;;;;;5415351;26;20000;-53
2024/04/26 06:52:17;;;;;;;12.05;3.67;;;;;;;;;;5401651;26;19995;-55
2024/04/26 06:54:43;;;;;;;8.85;3.25;;;;;;;;;;5419609;26;20007;-53
2024/04/26 06:57:08;;;;;;;9.70;3.38;;;;;;;;;;5421755;26;19998;-52
2024/04/26 06:59:33;;;;;;;15.57;4.10;;;;;;;;;;5420971;26;19999;-51
2024/04/26 07:02:02;;;;;;;10.63;4.03;;;;;;;;;;5409897;26;19992;-52
2024/04/26 07:04:28;;;;;;;14.15;4.25;;;;;;;;;;5399997;26;20006;-55
2024/04/26 07:06:53;;;;;;;9.63;3.10;;;;;;;;;;5422525;26;19991;-54
2024/04/26 07:09:18;;;;;;;14.10;3.42;;;;;;;;;;5422163;26;20062;-54
2024/04/26 07:11:44;;;;;;;12.00;3.72;;;;;;;;;;5423049;26;20413;-53
2024/04/26 07:14:09;;;;;;;9.93;3.63;;;;;;;;;;5394726;26;20296;-54
2024/04/26 07:16:34;;;;;;;11.55;3.50;;;;;;;;;;5422494;26;20312;-54
2024/04/26 07:19:00;;;;;;;13.63;3.95;;;;;;;;;;5430669;26;20419;-56
2024/04/26 07:21:25;;;;;;;12.07;3.55;;;;;;;;;;5419766;26;20068;-56
2024/04/26 07:23:50;;;;;;;9.77;3.35;;;;;;;;;;5396360;26;20001;-55
2024/04/26 07:26:17;;;;;;;14.23;3.85;;;;;;;;;;5386653;26;20032;-53
2024/04/26 07:28:42;;;;;;;10.80;4.00;;;;;;;;;;5417256;26;20011;-56
2024/04/26 07:31:08;;;;;;;13.75;4.75;;;;;;;;;;5402522;26;20396;-56
2024/04/26 07:33:33;;;;;;;11.70;4.00;;;;;;;;;;5421861;26;19995;-51
2024/04/26 07:35:59;;;;;;;12.10;3.47;;;;;;;;;;5421738;26;19987;-53
2024/04/26 07:38:24;;;;;;;12.32;4.00;;;;;;;;;;5422031;26;19996;-54
2024/04/26 07:40:50;;;;;;;13.63;4.10;;;;;;;;;;5421585;26;19998;-56
2024/04/26 07:43:16;;;;;;;12.07;3.85;;;;;;;;;;5394817;26;20000;-54
2024/04/26 07:45:41;;;;;;;12.13;3.30;;;;;;;;;;5387006;26;20424;-53
2024/04/26 07:48:07;;;;;;;14.07;3.70;;;;;;;;;;5439370;26;19994;-55
2024/04/26 07:50:32;;;;;;;11.68;3.90;;;;;;;;;;5411335;26;20073;-55
2024/04/26 07:52:57;;;;;;;12.32;3.67;;;;;;;;;;5388370;26;20000;-53
2024/04/26 07:55:22;;;;;;;11.73;4.03;;;;;;;;;;5395481;26;19991;-53
2024/04/26 07:57:47;;;;;;;11.75;3.92;;;;;;;;;;5420305;26;19992;-55
2024/04/26 08:00:13;;;;;;;13.95;4.18;;;;;;;;;;5421551;26;19992;-54
2024/04/26 08:02:38;;;;;;;14.93;4.32;;;;;;;;;;5421814;26;19991;-52
2024/04/26 08:05:03;;;;;;;11.43;3.95;;;;;;;;;;5422433;26;20447;-53
2024/04/26 08:07:30;;;;;;;11.93;3.97;;;;;;;;;;5421707;26;20006;-55
2024/04/26 08:09:55;;;;;;;13.85;4.60;;;;;;;;;;5419663;26;20003;-55
2024/04/26 08:12:20;;;;;;;10.32;3.80;;;;;;;;;;5422004;26;19995;-54
2024/04/26 08:14:47;;;;;;;12.07;4.32;;;;;;;;;;5421346;26;20010;-52
2024/04/26 08:17:12;;;;;;;15.07;4.78;;;;;;;;;;5420870;26;20007;-54
2024/04/26 08:19:37;;;;;;;12.38;4.28;;;;;;;;;;5421777;26;20396;-54
2024/04/26 08:22:02;;;;;;;15.80;4.15;;;;;;;;;;5421048;26;20015;-52
2024/04/26 08:24:27;;;;;;;19.15;5.82;;;;;;;;;;5420246;26;20003;-53
2024/04/26 08:26:53;;;;;;;14.05;4.80;;;;;;;;;;5417871;26;19999;-53
2024/04/26 08:29:18;;;;;;;16.65;5.40;;;;;;;;;;5385882;26;20004;-55
2024/04/26 08:31:43;;;;;;;11.57;4.57;;;;;;;;;;5418748;26;20045;-52
2024/04/26 08:34:08;;;;;;;12.57;4.70;;;;;;;;;;5430244;26;20011;-52
2024/04/26 08:36:34;;;;;;;11.48;4.60;;;;;;;;;;5421645;26;19995;-54
2024/04/26 08:38:59;;;;;;;14.90;4.65;;;;;;;;;;5421370;26;19988;-52
2024/04/26 08:41:26;;;;;;;12.20;4.68;;;;;;;;;;5421830;26;20078;-55
2024/04/26 08:43:51;;;;;;;16.55;4.85;;;;;;;;;;5420949;26;20343;-54
2024/04/26 08:46:18;;;;;;;13.48;4.57;;;;;;;;;;5420847;26;19992;-55
2024/04/26 08:48:44;;;;;;;11.98;4.88;;;;;;;;;;5421262;26;20393;-55
2024/04/26 08:51:09;;;;;;;14.98;5.32;;;;;;;;;;5421058;26;19999;-52
2024/04/26 08:53:35;;;;;;;11.38;4.10;;;;;;;;;;5420785;26;20008;-53
2024/04/26 08:56:06;;;;;;;11.45;4.65;;;;;;;;;;5433938;26;20009;-55
2024/04/26 08:58:32;;;;;;;16.58;5.53;;;;;;;;;;5456159;26;20034;-53
2024/04/26 09:00:57;;;;;;;13.48;5.45;;;;;;;;;;5418809;26;1013716;-56
2024/04/26 09:03:23;;;;;;;14.05;5.38;;;;;;;;;;5456957;26;19999;-53
2024/04/26 09:05:49;;;;;;;13.15;5.25;;;;;;;;;;5457136;26;19990;-52
2024/04/26 09:08:14;;;;;;;16.70;5.60;;;;;;;;;;5456730;26;20065;-55
2024/04/26 09:10:39;;;;;;;13.93;5.50;;;;;;;;;;5443403;26;20411;-53
2024/04/26 09:13:04;;;;;;;11.68;4.95;;;;;;;;;;5457157;26;19987;-55
2024/04/26 09:15:30;;;;;;;17.45;4.72;;;;;;;;;;5456126;26;20002;-54
2024/04/26 09:17:55;;;;;;;13.75;5.13;;;;;;;;;;5456530;26;20469;-55
2024/04/26 09:20:20;;;;;;;13.85;5.75;;;;;;;;;;5425183;26;20014;-55
2024/04/26 09:22:45;;;;;;;13.90;6.00;;;;;;;;;;5420636;26;20007;-54
2024/04/26 09:25:10;;;;;;;13.65;5.22;;;;;;;;;;5420430;26;20031;-54
2024/04/26 09:27:36;;;;;;;28.08;12.07;;;;;;;;;;5420409;26;19995;-53
2024/04/26 09:30:01;;;;;;;11.98;4.82;;;;;;;;;;5420764;26;20011;-53
2024/04/26 09:32:27;;;;;;;18.15;6.63;;;;;;;;;;5419241;26;20396;-56
2024/04/26 09:34:53;;;;;;;13.07;5.72;;;;;;;;;;5420365;26;19994;-53
2024/04/26 09:37:20;;;;;;;15.73;6.45;;;;;;;;;;5420631;26;19995;-56
2024/04/26 09:39:48;;;;;;;19.70;8.98;;;;;;;;;;5420308;26;20015;-55
2024/04/26 09:42:21;;;;;;;29.35;14.13;;;;;;;;;;5420026;26;20011;-54
2024/04/26 09:44:50;;;;;;;19.45;8.15;;;;;;;;;;5420173;26;20016;-54
2024/04/26 09:47:17;;;;;;;17.15;7.53;;;;;;;;;;5418580;26;20300;-52
2024/04/26 09:49:43;;;;;;;16.48;6.97;;;;;;;;;;5420355;26;20312;-53
2024/04/26 09:52:10;;;;;;;17.33;6.70;;;;;;;;;;5420404;26;20000;-54
2024/04/26 09:54:35;;;;;;;16.73;7.35;;;;;;;;;;5420320;26;20352;-54
2024/04/26 09:57:00;;;;;;;15.55;6.03;;;;;;;;;;5418066;26;20007;-57
2024/04/26 09:59:26;;;;;;;17.25;5.60;;;;;;;;;;5420374;26;20006;-56
2024/04/26 10:01:51;;;;;;;14.65;7.50;;;;;;;;;;5420104;26;20423;-52
2024/04/26 10:04:17;;;;;;;16.63;6.60;;;;;;;;;;5419987;26;20378;-54
2024/04/26 10:06:42;;;;;;;15.30;6.00;;;;;;;;;;5419572;26;20097;-56
2024/04/26 10:09:09;;;;;;;12.25;5.30;;;;;;;;;;5420056;26;20288;-53
2024/04/26 10:11:45;;;;;;;15.90;5.65;;;;;;;;;;5420152;26;19992;-52
2024/04/26 10:14:10;;;;;;;15.00;5.53;;;;;;;;;;5419919;26;20007;-56
2024/04/26 10:16:37;;;;;;;14.73;5.57;;;;;;;;;;5419599;26;20007;-55
2024/04/26 10:19:23;;;;;;;15.98;6.07;;;;;;;;;;5431546;26;20427;-56
2024/04/26 10:21:48;;;;;;;11.55;5.22;;;;;;;;;;5455301;26;19994;-56
2024/04/26 10:24:13;;;;;;;14.02;5.90;;;;;;;;;;5437048;26;20041;-54
2024/04/26 10:26:40;;;;;;;11.18;5.20;;;;;;;;;;5452447;26;19994;-54
2024/04/26 10:29:10;;;;;;;11.57;5.32;;;;;;;;;;5421476;26;19995;-56
2024/04/26 10:31:35;;;;;;;12.98;5.30;;;;;;;;;;5424066;26;19995;-56
2024/04/26 10:34:01;;;;;;;15.25;6.00;;;;;;;;;;5424300;26;20072;-53
2024/04/26 10:36:26;;;;;;;11.23;5.38;;;;;;;;;;5423197;26;19999;-55
2024/04/26 10:38:51;;;;;;;12.82;5.63;;;;;;;;;;5423178;26;19999;-53
2024/04/26 10:41:20;;;;;;;12.88;5.90;;;;;;;;;;5423150;26;19998;-56
2024/04/26 10:43:45;;;;;;;13.77;5.50;;;;;;;;;;5422970;26;20423;-54
2024/04/26 10:46:15;;;;;;;14.07;6.45;;;;;;;;;;5423243;26;19999;-55
2024/04/26 10:48:40;;;;;;;18.77;8.07;;;;;;;;;;5449211;26;20000;-53
2024/04/26 10:51:07;;;;;;;15.40;6.15;;;;;;;;;;5423019;26;19998;-54
2024/04/26 10:53:33;;;;;;;14.95;6.07;;;;;;;;;;5430621;26;20086;-52
2024/04/26 10:55:58;;;;;;;13.40;6.07;;;;;;;;;;5456927;26;19995;-55
2024/04/26 10:58:34;;;;;;;14.20;5.45;;;;;;;;;;5423090;26;20014;-53
2024/04/26 11:00:59;;;;;;;16.25;7.55;;;;;;;;;;5422324;26;20010;-52
2024/04/26 11:03:24;;;;;;;17.20;8.23;;;;;;;;;;5436653;26;20015;-53
2024/04/26 11:05:49;;;;;;;15.35;6.38;;;;;;;;;;5453794;26;20027;-55
2024/04/26 11:08:24;;;;;;;16.42;6.20;;;;;;;;;;5451055;26;20000;-58
2024/04/26 11:10:51;;;;;;;14.25;6.45;;;;;;;;;;5440565;26;20296;-56
2024/04/26 11:13:23;;;;;;;14.70;8.00;;;;;;;;;;5450439;26;19998;-56
2024/04/26 11:15:49;;;;;;;16.42;7.53;;;;;;;;;;5426273;26;20006;-55
2024/04/26 11:18:14;;;;;;;13.18;5.90;;;;;;;;;;5435316;26;20000;-57
2024/04/26 11:20:39;;;;;;;13.43;6.03;;;;;;;;;;5454669;26;19996;-53
2024/04/26 11:23:05;;;;;;;14.05;5.72;;;;;;;;;;5429017;26;20008;-55
2024/04/26 11:25:30;;;;;;;14.73;6.72;;;;;;;;;;5422018;26;20408;-53
2024/04/26 11:27:55;;;;;;;14.07;6.60;;;;;;;;;;5422281;26;19991;-56
2024/04/26 11:30:20;;;;;;;16.23;7.38;;;;;;;;;;5422410;26;19992;-54
2024/04/26 11:32:45;;;;;;;15.52;6.65;;;;;;;;;;5422338;26;19992;-54
2024/04/26 11:35:11;;;;;;;17.83;7.72;;;;;;;;;;5422368;26;19992;-54
2024/04/26 11:37:36;;;;;;;24.42;13.05;;;;;;;;;;5417098;26;20006;-56
2024/04/26 11:40:02;;;;;;;27.90;15.40;;;;;;;;;;5386520;26;19992;-53
2024/04/26 11:42:27;;;;;;;23.20;14.45;;;;;;;;;;5386735;26;20011;-57
2024/04/26 11:44:53;;;;;;;12.98;6.82;;;;;;;;;;5407719;26;20011;-58
2024/04/26 11:47:19;;;;;;;15.05;6.28;;;;;;;;;;5421979;26;20444;-57
2024/04/26 11:49:44;;;;;;;12.93;6.45;;;;;;;;;;5437305;26;20422;-57
2024/04/26 11:52:10;;;;;;;14.80;6.18;;;;;;;;;;5457199;26;19991;-54
2024/04/26 11:54:36;;;;;;;12.60;6.28;;;;;;;;;;5421844;26;20003;-58
2024/04/26 11:57:01;;;;;;;12.90;5.90;;;;;;;;;;5421922;26;19996;-53
2024/04/26 11:59:26;;;;;;;13.57;6.25;;;;;;;;;;5421977;26;20281;-54
2024/04/26 12:01:52;;;;;;;13.35;6.30;;;;;;;;;;5420578;26;20039;-55
2024/04/26 12:04:17;;;;;;;10.95;5.55;;;;;;;;;;5422037;26;20010;-53
2024/04/26 12:06:42;;;;;;;14.00;5.60;;;;;;;;;;5419887;26;20003;-55
2024/04/26 12:09:08;;;;;;;11.73;6.13;;;;;;;;;;5421956;26;19987;-56
2024/04/26 12:11:33;;;;;;;13.93;5.28;;;;;;;;;;5421698;26;19991;-57
2024/04/26 12:13:58;;;;;;;14.63;5.93;;;;;;;;;;5421624;26;20021;-57
2024/04/26 12:16:23;;;;;;;13.38;5.80;;;;;;;;;;5421582;26;19988;-57
2024/04/26 12:18:48;;;;;;;12.05;5.80;;;;;;;;;;5415673;26;20004;-58
2024/04/26 12:21:17;;;;;;;15.20;6.25;;;;;;;;;;5421436;26;19995;-57
2024/04/26 12:23:43;;;;;;;13.35;6.25;;;;;;;;;;5421108;26;20432;-54
2024/04/26 12:26:24;;;;;;;11.63;6.07;;;;;;;;;;5421599;26;19991;-55
2024/04/26 12:28:50;;;;;;;13.63;6.00;;;;;;;;;;5421614;26;20006;-57
2024/04/26 12:31:20;;;;;;;11.98;5.43;;;;;;;;;;5421629;26;19996;-57
2024/04/26 12:33:47;;;;;;;10.68;5.18;;;;;;;;;;5401387;26;20004;-55
2024/04/26 12:36:13;;;;;;;13.02;5.95;;;;;;;;;;5388050;26;20482;-54
2024/04/26 12:38:39;;;;;;;11.50;5.25;;;;;;;;;;5407361;26;19996;-56
2024/04/26 12:41:04;;;;;;;12.00;5.20;;;;;;;;;;5406745;26;20011;-55
2024/04/26 12:43:30;;;;;;;10.10;5.10;;;;;;;;;;5420626;26;20051;-57
2024/04/26 12:45:56;;;;;;;13.70;5.97;;;;;;;;;;5421213;26;19992;-54
2024/04/26 12:48:23;;;;;;;16.55;6.32;;;;;;;;;;5431136;26;20063;-56
2024/04/26 12:50:48;;;;;;;11.90;6.20;;;;;;;;;;5431831;26;20010;-54
2024/04/26 12:53:13;;;;;;;14.88;6.25;;;;;;;;;;5417880;26;20003;-54
2024/04/26 12:55:39;;;;;;;13.77;6.40;;;;;;;;;;5401360;26;19995;-52
2024/04/26 12:58:04;;;;;;;12.65;6.57;;;;;;;;;;5420906;26;19987;-54
2024/04/26 13:00:29;;;;;;;14.65;6.10;;;;;;;;;;5420603;26;19984;-56
2024/04/26 13:02:55;;;;;;;12.00;6.05;;;;;;;;;;5402407;26;20019;-52
2024/04/26 13:05:21;;;;;;;13.02;6.32;;;;;;;;;;5385534;26;20323;-52
2024/04/26 13:07:46;;;;;;;16.08;6.13;;;;;;;;;;5387611;26;20019;-54
2024/04/26 13:10:13;;;;;;;12.60;5.53;;;;;;;;;;5402718;26;19992;-54
2024/04/26 13:12:38;;;;;;;10.32;5.00;;;;;;;;;;5420993;26;20006;-52
2024/04/26 13:15:04;;;;;;;10.55;4.75;;;;;;;;;;5420974;26;20020;-54
2024/04/26 13:17:30;;;;;;;12.60;5.90;;;;;;;;;;5421239;26;20004;-56
2024/04/26 13:19:57;;;;;;;11.40;6.22;;;;;;;;;;5445522;26;20069;-53
2024/04/26 13:22:22;;;;;;;13.23;6.43;;;;;;;;;;5386016;26;20012;-57
2024/04/26 13:24:48;;;;;;;12.00;5.68;;;;;;;;;;5402996;26;20085;-54
2024/04/26 13:27:13;;;;;;;11.93;5.38;;;;;;;;;;5420704;26;20393;-57
2024/04/26 13:29:38;;;;;;;10.95;5.35;;;;;;;;;;5420575;26;20400;-57
2024/04/26 13:32:03;;;;;;;11.65;5.47;;;;;;;;;;5420158;26;19992;-56
2024/04/26 13:34:29;;;;;;;13.65;5.72;;;;;;;;;;5419029;26;20003;-55
2024/04/26 13:36:54;;;;;;;11.43;4.75;;;;;;;;;;5385141;26;19992;-55
2024/04/26 13:39:19;;;;;;;10.38;5.03;;;;;;;;;;5392594;26;20340;-53
2024/04/26 13:41:46;;;;;;;11.68;5.38;;;;;;;;;;5383446;26;20370;-53
2024/04/26 13:44:11;;;;;;;13.75;5.57;;;;;;;;;;5384725;26;20000;-54
2024/04/26 13:46:40;;;;;;;13.75;5.68;;;;;;;;;;5385377;26;19996;-56
2024/04/26 13:49:07;;;;;;;11.10;5.50;;;;;;;;;;5391003;26;20405;-53
2024/04/26 13:51:33;;;;;;;12.85;5.15;;;;;;;;;;5385459;26;20028;-56
2024/04/26 13:53:58;;;;;;;11.05;5.22;;;;;;;;;;5383206;26;19988;-55
2024/04/26 13:56:23;;;;;;;13.40;7.15;;;;;;;;;;5385677;26;20305;-52
2024/04/26 13:58:49;;;;;;;16.67;7.05;;;;;;;;;;5384774;26;19996;-56
2024/04/26 14:01:17;;;;;;;11.88;5.82;;;;;;;;;;5382508;26;19996;-53
2024/04/26 14:03:42;;;;;;;12.95;6.07;;;;;;;;;;5403633;26;20031;-52
2024/04/26 14:06:08;;;;;;;12.00;5.85;;;;;;;;;;5384410;26;20066;-56
2024/04/26 14:08:33;;;;;;;12.15;5.70;;;;;;;;;;5401070;26;20415;-55
2024/04/26 14:10:58;;;;;;;10.15;5.15;;;;;;;;;;5418195;26;19992;-55
2024/04/26 14:13:24;;;;;;;14.75;5.75;;;;;;;;;;5419906;26;20072;-55
2024/04/26 14:15:49;;;;;;;13.02;5.20;;;;;;;;;;5419952;26;20003;-55
2024/04/26 14:18:14;;;;;;;9.98;4.80;;;;;;;;;;5413152;26;20350;-54
2024/04/26 14:20:41;;;;;;;12.38;5.85;;;;;;;;;;5412575;26;20008;-52
2024/04/26 14:23:07;;;;;;;10.52;4.82;;;;;;;;;;5407161;26;20352;-53
2024/04/26 14:25:33;;;;;;;9.80;4.80;;;;;;;;;;5419734;26;19988;-56